sensor_id;sensor_type;location;lat;lon;timestamp;pressure;altitude;pressure_sealevel;temperature;humidity
58467;BME280;44255;49.244;7.726;2023-02-03T04:30:21;99524.59;;;3.62;65.76
58467;BME280;44255;49.244;7.726;2023-02-03T04:32:47;99515.25;;;3.42;66.25
58467;BME280;44255;49.244;7.726;2023-02-03T04:35:13;99525.28;;;4.11;64.73
58467;BME280;44255;49.244;7.726;2023-02-03T04:37:38;99518.66;;;3.88;65.07
58467;BME280;44255;49.244;7.726;2023-02-03T04:40:04;99517.09;;;4.19;63.51
58467;BME280;44255;49.244;7.726;2023-02-03T04:44:59;99527.56;;;3.87;65.23
58467;BME280;44255;49.244;7.726;2023-02-03T04:47:25;99531.91;;;3.93;65.04
58467;BME280;44255;49.244;7.726;2023-02-03T04:49:50;99523.47;;;4.13;64.38
58467;BME280;44255;49.244;7.726;2023-02-03T04:52:15;99531.72;;;4.02;64.31
58467;BME280;44255;49.244;7.726;2023-02-03T04:54:40;99522.53;;;4.49;63.23
58467;BME280;44255;49.244;7.726;2023-02-03T04:57:06;99513.91;;;4.03;64.42
58467;BME280;44255;49.244;7.726;2023-02-03T04:59:31;99518.63;;;3.90;63.83
58467;BME280;44255;49.244;7.726;2023-02-03T05:01:56;99539.47;;;4.48;62.52
58467;BME280;44255;49.244;7.726;2023-02-03T05:04:22;99542.13;;;4.13;64.65
58467;BME280;44255;49.244;7.726;2023-02-03T05:06:47;99523.75;;;3.99;64.42
58467;BME280;44255;49.244;7.726;2023-02-03T05:09:13;99526.06;;;4.15;64.31
58467;BME280;44255;49.244;7.726;2023-02-03T05:11:38;99535.06;;;3.71;65.85
58467;BME280;44255;49.244;7.726;2023-02-03T05:14:04;99511.16;;;4.06;65.28
58467;BME280;44255;49.244;7.726;2023-02-03T05:16:29;99507.94;;;3.91;64.58
58467;BME280;44255;49.244;7.726;2023-02-03T05:18:54;99505.97;;;4.00;64.95
58467;BME280;44255;49.244;7.726;2023-02-03T05:21:20;99508.00;;;4.26;64.26
58467;BME280;44255;49.244;7.726;2023-02-03T05:23:45;99503.75;;;3.79;65.80
58467;BME280;44255;49.244;7.726;2023-02-03T05:26:11;99506.84;;;4.00;65.80
58467;BME280;44255;49.244;7.726;2023-02-03T05:28:36;99516.75;;;3.54;66.32
58467;BME280;44255;49.244;7.726;2023-02-03T05:31:02;99494.31;;;3.66;66.75
58467;BME280;44255;49.244;7.726;2023-02-03T05:33:28;99485.28;;;4.09;65.91
58467;BME280;44255;49.244;7.726;2023-02-03T05:35:53;99488.50;;;3.86;65.81
58467;BME280;44255;49.244;7.726;2023-02-03T05:38:19;99491.44;;;4.13;65.60
58467;BME280;44255;49.244;7.726;2023-02-03T05:40:48;99480.81;;;3.72;66.19
58467;BME280;44255;49.244;7.726;2023-02-03T05:43:33;99499.81;;;3.96;65.68
58467;BME280;44255;49.244;7.726;2023-02-03T05:46:03;99514.25;;;3.87;65.23
58467;BME280;44255;49.244;7.726;2023-02-03T05:48:29;99496.47;;;3.88;65.33
58467;BME280;44255;49.244;7.726;2023-02-03T05:50:54;99484.69;;;3.97;66.19
58467;BME280;44255;49.244;7.726;2023-02-03T05:53:19;99485.50;;;4.00;65.46
58467;BME280;44255;49.244;7.726;2023-02-03T05:55:45;99488.31;;;3.94;66.26
58467;BME280;44255;49.244;7.726;2023-02-03T05:58:10;99485.00;;;4.22;64.71
58467;BME280;44255;49.244;7.726;2023-02-03T06:00:35;99487.00;;;3.74;66.32
58467;BME280;44255;49.244;7.726;2023-02-03T06:03:02;99504.09;;;3.65;66.38
58467;BME280;44255;49.244;7.726;2023-02-03T06:05:28;99505.38;;;3.47;66.76
58467;BME280;44255;49.244;7.726;2023-02-03T06:07:54;99505.47;;;3.84;66.36
58467;BME280;44255;49.244;7.726;2023-02-03T06:10:20;99501.41;;;3.65;66.38
58467;BME280;44255;49.244;7.726;2023-02-03T06:12:46;99505.25;;;3.52;66.58
58467;BME280;44255;49.244;7.726;2023-02-03T06:15:11;99502.47;;;3.17;67.71
58467;BME280;44255;49.244;7.726;2023-02-03T06:17:37;99509.63;;;3.14;67.59
58467;BME280;44255;49.244;7.726;2023-02-03T06:20:06;99501.88;;;3.85;66.00
58467;BME280;44255;49.244;7.726;2023-02-03T06:22:32;99506.09;;;3.56;66.66
58467;BME280;44255;49.244;7.726;2023-02-03T06:24:58;99504.66;;;3.39;67.30
58467;BME280;44255;49.244;7.726;2023-02-03T06:27:23;99493.03;;;3.43;67.18
58467;BME280;44255;49.244;7.726;2023-02-03T06:29:49;99501.53;;;4.36;64.85
58467;BME280;44255;49.244;7.726;2023-02-03T06:32:14;99504.34;;;4.30;64.26
58467;BME280;44255;49.244;7.726;2023-02-03T06:34:40;99507.94;;;4.29;63.80
58467;BME280;44255;49.244;7.726;2023-02-03T06:37:05;99511.41;;;3.95;64.35
58467;BME280;44255;49.244;7.726;2023-02-03T06:39:30;99524.22;;;4.18;64.02
58467;BME280;44255;49.244;7.726;2023-02-03T06:41:55;99518.88;;;4.18;64.06
58467;BME280;44255;49.244;7.726;2023-02-03T06:44:21;99500.47;;;4.07;65.19
58467;BME280;44255;49.244;7.726;2023-02-03T06:46:46;99493.81;;;3.86;65.04
58467;BME280;44255;49.244;7.726;2023-02-03T06:49:12;99488.69;;;4.16;64.38
58467;BME280;44255;49.244;7.726;2023-02-03T06:51:37;99491.53;;;4.10;65.23
58467;BME280;44255;49.244;7.726;2023-02-03T06:54:03;99498.41;;;3.42;66.54
58467;BME280;44255;49.244;7.726;2023-02-03T06:56:29;99507.84;;;3.57;66.65
58467;BME280;44255;49.244;7.726;2023-02-03T06:58:54;99491.72;;;4.02;66.01
58467;BME280;44255;49.244;7.726;2023-02-03T07:01:20;99497.50;;;3.41;66.70
58467;BME280;44255;49.244;7.726;2023-02-03T07:03:46;99489.44;;;3.44;67.57
58467;BME280;44255;49.244;7.726;2023-02-03T07:06:12;99477.03;;;3.83;66.50
58467;BME280;44255;49.244;7.726;2023-02-03T07:08:37;99485.78;;;3.50;67.70
58467;BME280;44255;49.244;7.726;2023-02-03T07:11:03;99483.50;;;3.33;68.17
58467;BME280;44255;49.244;7.726;2023-02-03T07:13:28;99463.53;;;3.90;66.29
58467;BME280;44255;49.244;7.726;2023-02-03T07:15:53;99480.53;;;3.85;67.04
58467;BME280;44255;49.244;7.726;2023-02-03T07:18:19;99477.41;;;3.67;66.87
58467;BME280;44255;49.244;7.726;2023-02-03T07:20:48;99500.06;;;3.47;66.42
58467;BME280;44255;49.244;7.726;2023-02-03T07:23:13;99500.97;;;3.86;66.70
58467;BME280;44255;49.244;7.726;2023-02-03T07:25:39;99495.66;;;3.84;66.07
58467;BME280;44255;49.244;7.726;2023-02-03T07:28:04;99501.38;;;4.06;65.02
58467;BME280;44255;49.244;7.726;2023-02-03T07:30:29;99499.81;;;4.34;64.36
58467;BME280;44255;49.244;7.726;2023-02-03T07:32:54;99528.66;;;3.80;65.54
58467;BME280;44255;49.244;7.726;2023-02-03T07:35:20;99526.41;;;3.60;66.64
58467;BME280;44255;49.244;7.726;2023-02-03T07:37:45;99538.97;;;3.56;67.10
58467;BME280;44255;49.244;7.726;2023-02-03T07:40:12;99526.34;;;3.63;67.26
58467;BME280;44255;49.244;7.726;2023-02-03T07:42:41;99540.81;;;3.51;67.21
58467;BME280;44255;49.244;7.726;2023-02-03T07:45:08;99539.16;;;3.01;69.13
58467;BME280;44255;49.244;7.726;2023-02-03T07:47:33;99544.00;;;3.69;67.45
58467;BME280;44255;49.244;7.726;2023-02-03T07:49:59;99547.41;;;3.75;67.85
58467;BME280;44255;49.244;7.726;2023-02-03T07:52:24;99562.00;;;3.98;65.88
58467;BME280;44255;49.244;7.726;2023-02-03T07:54:49;99563.63;;;3.66;67.16
58467;BME280;44255;49.244;7.726;2023-02-03T07:57:14;99566.75;;;3.85;67.21
58467;BME280;44255;49.244;7.726;2023-02-03T07:59:40;99566.97;;;4.17;65.82
58467;BME280;44255;49.244;7.726;2023-02-03T08:02:05;99571.66;;;3.63;66.85
58467;BME280;44255;49.244;7.726;2023-02-03T08:04:30;99553.81;;;3.68;67.65
58467;BME280;44255;49.244;7.726;2023-02-03T08:06:55;99564.41;;;3.71;67.98
58467;BME280;44255;49.244;7.726;2023-02-03T08:09:21;99583.38;;;3.13;69.08
58467;BME280;44255;49.244;7.726;2023-02-03T08:11:46;99576.16;;;3.17;72.56
58467;BME280;44255;49.244;7.726;2023-02-03T08:14:12;99577.28;;;3.49;70.47
58467;BME280;44255;49.244;7.726;2023-02-03T08:16:37;99586.28;;;3.43;70.93
58467;BME280;44255;49.244;7.726;2023-02-03T08:19:02;99577.91;;;3.19;71.23
58467;BME280;44255;49.244;7.726;2023-02-03T08:21:28;99571.41;;;3.75;70.60
58467;BME280;44255;49.244;7.726;2023-02-03T08:23:54;99579.41;;;3.75;69.41
58467;BME280;44255;49.244;7.726;2023-02-03T08:26:19;99581.38;;;3.23;70.96
58467;BME280;44255;49.244;7.726;2023-02-03T08:28:47;99574.84;;;3.40;70.33
58467;BME280;44255;49.244;7.726;2023-02-03T08:31:13;99559.06;;;3.71;69.18
58467;BME280;44255;49.244;7.726;2023-02-03T08:33:38;99566.75;;;3.85;69.63
58467;BME280;44255;49.244;7.726;2023-02-03T08:36:04;99555.31;;;3.37;70.30
58467;BME280;44255;49.244;7.726;2023-02-03T08:38:30;99557.88;;;3.42;70.86
58467;BME280;44255;49.244;7.726;2023-02-03T08:40:55;99555.28;;;3.81;68.97
58467;BME280;44255;49.244;7.726;2023-02-03T08:43:20;99552.38;;;3.91;68.75
58467;BME280;44255;49.244;7.726;2023-02-03T08:45:46;99552.19;;;4.00;68.58
58467;BME280;44255;49.244;7.726;2023-02-03T08:48:11;99567.84;;;3.34;69.76
58467;BME280;44255;49.244;7.726;2023-02-03T08:50:36;99564.72;;;3.97;68.01
58467;BME280;44255;49.244;7.726;2023-02-03T08:53:01;99566.78;;;3.43;68.99
58467;BME280;44255;49.244;7.726;2023-02-03T08:55:27;99574.13;;;3.30;70.15
58467;BME280;44255;49.244;7.726;2023-02-03T08:57:52;99549.38;;;4.08;67.72
58467;BME280;44255;49.244;7.726;2023-02-03T09:00:18;99563.41;;;4.15;67.58
58467;BME280;44255;49.244;7.726;2023-02-03T09:02:43;99575.38;;;4.36;67.05
58467;BME280;44255;49.244;7.726;2023-02-03T09:05:09;99578.97;;;3.55;68.70
58467;BME280;44255;49.244;7.726;2023-02-03T09:07:34;99570.56;;;4.14;67.32
58467;BME280;44255;49.244;7.726;2023-02-03T09:10:00;99580.06;;;3.44;68.90
58467;BME280;44255;49.244;7.726;2023-02-03T09:12:25;99566.47;;;3.98;68.31
58467;BME280;44255;49.244;7.726;2023-02-03T09:14:50;99579.03;;;3.92;68.71
58467;BME280;44255;49.244;7.726;2023-02-03T09:17:15;99568.88;;;4.10;67.90
58467;BME280;44255;49.244;7.726;2023-02-03T09:19:41;99577.84;;;4.06;68.42
58467;BME280;44255;49.244;7.726;2023-02-03T09:22:06;99579.97;;;3.90;68.84
58467;BME280;44255;49.244;7.726;2023-02-03T09:24:31;99584.53;;;3.85;69.31
58467;BME280;44255;49.244;7.726;2023-02-03T09:26:56;99584.03;;;3.67;69.68
58467;BME280;44255;49.244;7.726;2023-02-03T09:29:22;99565.41;;;3.65;70.18
58467;BME280;44255;49.244;7.726;2023-02-03T09:31:50;99555.91;;;3.93;69.64
58467;BME280;44255;49.244;7.726;2023-02-03T09:34:18;99557.03;;;3.83;68.96
58467;BME280;44255;49.244;7.726;2023-02-03T09:36:45;99574.63;;;3.90;68.55
58467;BME280;44255;49.244;7.726;2023-02-03T09:39:10;99572.97;;;3.86;69.14
58467;BME280;44255;49.244;7.726;2023-02-03T09:44:42;99559.56;;;3.46;71.32
58467;BME280;44255;49.244;7.726;2023-02-03T09:47:22;99555.22;;;3.44;71.31
58467;BME280;44255;49.244;7.726;2023-02-03T09:50:00;99570.13;;;3.52;70.95
58467;BME280;44255;49.244;7.726;2023-02-03T09:52:52;99562.00;;;3.59;70.39
58467;BME280;44255;49.244;7.726;2023-02-03T09:55:38;99559.00;;;3.74;69.16
58467;BME280;44255;49.244;7.726;2023-02-03T09:58:16;99562.28;;;4.27;68.00
58467;BME280;44255;49.244;7.726;2023-02-03T10:00:51;99556.88;;;3.90;69.32
58467;BME280;44255;49.244;7.726;2023-02-03T10:03:30;99565.31;;;3.70;69.96
58467;BME280;44255;49.244;7.726;2023-02-03T10:08:58;99564.28;;;4.53;67.42
58467;BME280;44255;49.244;7.726;2023-02-03T10:11:55;99557.84;;;4.26;67.55
58467;BME280;44255;49.244;7.726;2023-02-03T10:17:27;99557.66;;;4.33;67.64
58467;BME280;44255;49.244;7.726;2023-02-03T10:22:25;99565.72;;;3.91;68.19
58467;BME280;44255;49.244;7.726;2023-02-03T10:25:19;99566.66;;;3.88;68.77
58467;BME280;44255;49.244;7.726;2023-02-03T10:27:50;99565.38;;;4.08;68.63
58467;BME280;44255;49.244;7.726;2023-02-03T10:30:28;99563.56;;;4.46;67.35
58467;BME280;44255;49.244;7.726;2023-02-03T10:33:09;99576.84;;;4.12;100.00
58467;BME280;44255;49.244;7.726;2023-02-03T10:36:26;99575.53;;;4.64;100.00
58467;BME280;44255;49.244;7.726;2023-02-03T10:41:08;99577.16;;;3.96;72.11
58467;BME280;44255;49.244;7.726;2023-02-03T10:43:34;99569.72;;;4.12;70.86
58467;BME280;44255;49.244;7.726;2023-02-03T10:46:16;99555.38;;;4.16;70.71
58467;BME280;44255;49.244;7.726;2023-02-03T10:48:42;99547.47;;;4.13;69.51
58467;BME280;44255;49.244;7.726;2023-02-03T10:51:23;99567.63;;;3.86;70.52
58467;BME280;44255;49.244;7.726;2023-02-03T10:53:50;99557.44;;;4.05;71.03
58467;BME280;44255;49.244;7.726;2023-02-03T10:56:20;99558.25;;;4.08;70.62
58467;BME280;44255;49.244;7.726;2023-02-03T10:58:52;99550.25;;;3.25;73.38
58467;BME280;44255;49.244;7.726;2023-02-03T11:01:21;99539.53;;;4.10;71.33
58467;BME280;44255;49.244;7.726;2023-02-03T11:03:57;99534.34;;;4.75;68.55
58467;BME280;44255;49.244;7.726;2023-02-03T11:06:23;99534.72;;;3.87;70.24
58467;BME280;44255;49.244;7.726;2023-02-03T11:08:50;99513.06;;;4.72;67.68
58467;BME280;44255;49.244;7.726;2023-02-03T11:11:25;99512.09;;;4.41;68.13
58467;BME280;44255;49.244;7.726;2023-02-03T11:13:52;99518.97;;;4.14;69.77
58467;BME280;44255;49.244;7.726;2023-02-03T11:16:18;99517.47;;;4.03;68.85
58467;BME280;44255;49.244;7.726;2023-02-03T11:21:25;99513.66;;;4.14;68.70
58467;BME280;44255;49.244;7.726;2023-02-03T11:24:00;99512.47;;;3.88;68.87
58467;BME280;44255;49.244;7.726;2023-02-03T11:26:30;99498.22;;;3.89;68.36
58467;BME280;44255;49.244;7.726;2023-02-03T11:28:58;99501.91;;;3.83;69.23
58467;BME280;44255;49.244;7.726;2023-02-03T11:31:27;99511.59;;;4.25;67.78
58467;BME280;44255;49.244;7.726;2023-02-03T11:33:56;99502.28;;;4.07;68.77
58467;BME280;44255;49.244;7.726;2023-02-03T11:36:25;99520.75;;;3.75;68.99
58467;BME280;44255;49.244;7.726;2023-02-03T11:38:51;99517.63;;;3.56;69.62
58467;BME280;44255;49.244;7.726;2023-02-03T11:41:19;99513.19;;;4.32;68.45
58467;BME280;44255;49.244;7.726;2023-02-03T11:43:46;99514.56;;;3.32;70.90
58467;BME280;44255;49.244;7.726;2023-02-03T11:46:12;99516.31;;;3.74;70.91
58467;BME280;44255;49.244;7.726;2023-02-03T11:53:52;99508.28;;;4.15;67.91
58467;BME280;44255;49.244;7.726;2023-02-03T12:01:47;99518.63;;;3.91;71.32
58467;BME280;44255;49.244;7.726;2023-02-03T12:04:27;99517.22;;;4.13;70.05
58467;BME280;44255;49.244;7.726;2023-02-03T12:23:17;99543.72;;;4.20;68.83
58467;BME280;44255;49.244;7.726;2023-02-03T12:26:17;99560.53;;;3.85;69.65
58467;BME280;44255;49.244;7.726;2023-02-03T12:34:33;99559.41;;;4.34;70.58
58467;BME280;44255;49.244;7.726;2023-02-03T12:37:11;99559.88;;;4.50;68.90
58467;BME280;44255;49.244;7.726;2023-02-03T12:40:01;99551.69;;;4.22;70.81
58467;BME280;44255;49.244;7.726;2023-02-03T12:42:30;99535.25;;;4.74;68.12
58467;BME280;44255;49.244;7.726;2023-02-03T12:45:07;99513.66;;;4.14;71.30
58467;BME280;44255;49.244;7.726;2023-02-03T12:50:22;99499.34;;;4.18;70.89
58467;BME280;44255;49.244;7.726;2023-02-03T12:53:14;99498.38;;;4.55;68.91
58467;BME280;44255;49.244;7.726;2023-02-03T12:55:47;99500.34;;;4.47;68.66
58467;BME280;44255;49.244;7.726;2023-02-03T13:01:20;99496.44;;;4.93;68.24
58467;BME280;44255;49.244;7.726;2023-02-03T13:04:07;99503.88;;;4.13;71.03
58467;BME280;44255;49.244;7.726;2023-02-03T13:12:40;99473.69;;;4.12;72.15
58467;BME280;44255;49.244;7.726;2023-02-03T13:15:21;99471.56;;;4.60;70.66
58467;BME280;44255;49.244;7.726;2023-02-03T13:20:40;99476.59;;;4.37;71.99
58467;BME280;44255;49.244;7.726;2023-02-03T13:23:09;99459.97;;;4.26;70.77
58467;BME280;44255;49.244;7.726;2023-02-03T13:26:03;99446.53;;;3.93;71.92
58467;BME280;44255;49.244;7.726;2023-02-03T13:41:51;99437.16;;;4.14;71.70
58467;BME280;44255;49.244;7.726;2023-02-03T13:44:21;99440.88;;;4.43;70.34
58467;BME280;44255;49.244;7.726;2023-02-03T13:46:51;99442.69;;;4.41;70.69
58467;BME280;44255;49.244;7.726;2023-02-03T13:49:23;99434.66;;;4.08;71.80
58467;BME280;44255;49.244;7.726;2023-02-03T13:51:50;99436.28;;;4.80;69.39
58467;BME280;44255;49.244;7.726;2023-02-03T13:54:37;99447.06;;;4.44;69.30
58467;BME280;44255;49.244;7.726;2023-02-03T13:57:18;99444.53;;;4.04;77.08
58467;BME280;44255;49.244;7.726;2023-02-03T13:59:45;99438.88;;;4.17;73.90
58467;BME280;44255;49.244;7.726;2023-02-03T14:07:28;99427.06;;;3.89;73.58
58467;BME280;44255;49.244;7.726;2023-02-03T14:10:21;99420.22;;;4.50;71.32
58467;BME280;44255;49.244;7.726;2023-02-03T14:23:27;99425.25;;;4.61;69.79
58467;BME280;44255;49.244;7.726;2023-02-03T14:25:59;99425.75;;;4.75;68.95
58467;BME280;44255;49.244;7.726;2023-02-03T14:28:30;99419.38;;;4.79;68.58
58467;BME280;44255;49.244;7.726;2023-02-03T14:36:40;99438.72;;;4.88;68.34
58467;BME280;44255;49.244;7.726;2023-02-03T14:44:17;99454.34;;;4.01;73.99
58467;BME280;44255;49.244;7.726;2023-02-03T14:47:03;99449.28;;;4.28;72.28
58467;BME280;44255;49.244;7.726;2023-02-03T14:57:38;99463.81;;;4.82;70.69
58467;BME280;44255;49.244;7.726;2023-02-03T15:00:07;99472.84;;;4.78;68.04
58467;BME280;44255;49.244;7.726;2023-02-03T15:07:56;99462.28;;;4.05;72.10
58467;BME280;44255;49.244;7.726;2023-02-03T15:10:29;99452.22;;;4.17;71.42
58467;BME280;44255;49.244;7.726;2023-02-03T15:13:04;99446.84;;;4.18;72.22
58467;BME280;44255;49.244;7.726;2023-02-03T15:15:32;99454.56;;;4.29;70.89
58467;BME280;44255;49.244;7.726;2023-02-03T15:18:20;99453.81;;;4.57;71.56
58467;BME280;44255;49.244;7.726;2023-02-03T15:20:46;99457.75;;;4.44;70.46
58467;BME280;44255;49.244;7.726;2023-02-03T15:23:26;99462.78;;;4.55;71.00
58467;BME280;44255;49.244;7.726;2023-02-03T15:25:56;99491.94;;;4.62;70.13
58467;BME280;44255;49.244;7.726;2023-02-03T15:28:23;99501.03;;;4.20;71.97
58467;BME280;44255;49.244;7.726;2023-02-03T15:33:29;99512.50;;;4.24;71.91
58467;BME280;44255;49.244;7.726;2023-02-03T15:36:01;99512.63;;;4.19;71.92
58467;BME280;44255;49.244;7.726;2023-02-03T15:38:34;99491.44;;;4.81;69.41
58467;BME280;44255;49.244;7.726;2023-02-03T15:41:01;99506.81;;;4.73;68.85
58467;BME280;44255;49.244;7.726;2023-02-03T15:43:37;99496.06;;;4.06;73.66
58467;BME280;44255;49.244;7.726;2023-02-03T15:46:16;99487.03;;;4.12;71.59
58467;BME280;44255;49.244;7.726;2023-02-03T15:49:06;99485.03;;;4.20;71.97
58467;BME280;44255;49.244;7.726;2023-02-03T15:51:43;99498.22;;;3.89;73.59
58467;BME280;44255;49.244;7.726;2023-02-03T15:54:14;99488.28;;;4.33;72.08
58467;BME280;44255;49.244;7.726;2023-02-03T15:56:44;99481.81;;;4.42;71.09
58467;BME280;44255;49.244;7.726;2023-02-03T15:59:29;99509.03;;;4.20;71.90
58467;BME280;44255;49.244;7.726;2023-02-03T16:01:55;99492.22;;;4.53;71.00
58467;BME280;44255;49.244;7.726;2023-02-03T16:04:21;99488.09;;;4.40;71.20
58467;BME280;44255;49.244;7.726;2023-02-03T16:06:51;99512.03;;;4.77;70.40
58467;BME280;44255;49.244;7.726;2023-02-03T16:09:33;99505.97;;;4.36;71.59
58467;BME280;44255;49.244;7.726;2023-02-03T16:12:28;99502.66;;;5.26;68.75
58467;BME280;44255;49.244;7.726;2023-02-03T16:14:55;99499.88;;;4.31;71.03
58467;BME280;44255;49.244;7.726;2023-02-03T16:19:47;99513.25;;;4.31;72.97
58467;BME280;44255;49.244;7.726;2023-02-03T16:22:29;99513.69;;;4.47;71.60
58467;BME280;44255;49.244;7.726;2023-02-03T16:24:56;99519.72;;;4.55;71.02
58467;BME280;44255;49.244;7.726;2023-02-03T16:29:53;99523.81;;;4.35;70.99
58467;BME280;44255;49.244;7.726;2023-02-03T16:32:38;99518.16;;;4.81;70.52
58467;BME280;44255;49.244;7.726;2023-02-03T16:35:23;99505.16;;;4.69;70.52
58467;BME280;44255;49.244;7.726;2023-02-03T16:38:14;99525.16;;;4.52;70.65
58467;BME280;44255;49.244;7.726;2023-02-03T16:40:59;99520.72;;;4.16;72.73
58467;BME280;44255;49.244;7.726;2023-02-03T16:43:44;99525.66;;;4.66;71.59
58467;BME280;44255;49.244;7.726;2023-02-03T16:46:28;99512.47;;;6.41;64.66
58467;BME280;44255;49.244;7.726;2023-02-03T16:49:11;99526.81;;;5.83;65.14
58467;BME280;44255;49.244;7.726;2023-02-03T16:51:55;99523.81;;;5.33;67.12
58467;BME280;44255;49.244;7.726;2023-02-03T16:54:21;99527.03;;;5.46;67.35
58467;BME280;44255;49.244;7.726;2023-02-03T16:56:46;99526.53;;;5.32;66.21
58467;BME280;44255;49.244;7.726;2023-02-03T16:59:12;99513.00;;;5.68;66.01
58467;BME280;44255;49.244;7.726;2023-02-03T17:01:37;99512.53;;;5.23;66.66
58467;BME280;44255;49.244;7.726;2023-02-03T17:04:03;99504.88;;;5.41;68.36
58467;BME280;44255;49.244;7.726;2023-02-03T17:06:29;99507.94;;;5.59;66.68
58467;BME280;44255;49.244;7.726;2023-02-03T17:08:55;99507.47;;;5.44;67.37
58467;BME280;44255;49.244;7.726;2023-02-03T17:11:21;99503.31;;;5.64;66.59
58467;BME280;44255;49.244;7.726;2023-02-03T17:13:48;99523.63;;;5.40;67.55
58467;BME280;44255;49.244;7.726;2023-02-03T17:16:19;99509.38;;;5.69;67.75
58467;BME280;44255;49.244;7.726;2023-02-03T17:18:45;99529.03;;;5.68;65.89
58467;BME280;44255;49.244;7.726;2023-02-03T17:21:23;99521.91;;;5.97;64.21
58467;BME280;44255;49.244;7.726;2023-02-03T17:23:49;99539.22;;;4.92;68.25
58467;BME280;44255;49.244;7.726;2023-02-03T17:26:15;99532.56;;;5.70;66.20
58467;BME280;44255;49.244;7.726;2023-02-03T17:28:40;99537.97;;;5.67;65.75
58467;BME280;44255;49.244;7.726;2023-02-03T17:31:11;99554.47;;;5.20;68.23
58467;BME280;44255;49.244;7.726;2023-02-03T17:33:36;99554.59;;;5.15;67.49
58467;BME280;44255;49.244;7.726;2023-02-03T17:36:04;99564.75;;;4.69;69.82
58467;BME280;44255;49.244;7.726;2023-02-03T17:38:35;99559.72;;;4.91;73.02
58467;BME280;44255;49.244;7.726;2023-02-03T17:41:06;99569.78;;;5.48;67.38
58467;BME280;44255;49.244;7.726;2023-02-03T17:43:32;99570.47;;;5.55;67.70
58467;BME280;44255;49.244;7.726;2023-02-03T17:45:57;99570.47;;;5.55;66.40
58467;BME280;44255;49.244;7.726;2023-02-03T17:48:24;99564.72;;;5.67;66.08
58467;BME280;44255;49.244;7.726;2023-02-03T17:50:49;99553.63;;;6.10;65.62
58467;BME280;44255;49.244;7.726;2023-02-03T17:53:14;99552.66;;;5.54;66.45
58467;BME280;44255;49.244;7.726;2023-02-03T17:55:40;99550.84;;;5.22;67.64
58467;BME280;44255;49.244;7.726;2023-02-03T17:58:05;99557.41;;;5.42;66.72
58467;BME280;44255;49.244;7.726;2023-02-03T18:00:30;99561.31;;;5.92;66.03
58467;BME280;44255;49.244;7.726;2023-02-03T18:02:55;99560.59;;;5.87;65.58
58467;BME280;44255;49.244;7.726;2023-02-03T18:05:21;99557.03;;;5.25;68.61
58467;BME280;44255;49.244;7.726;2023-02-03T18:07:46;99557.78;;;4.97;69.11
58467;BME280;44255;49.244;7.726;2023-02-03T18:10:11;99554.06;;;5.04;68.45
58467;BME280;44255;49.244;7.726;2023-02-03T18:12:37;99553.16;;;5.97;65.35
58467;BME280;44255;49.244;7.726;2023-02-03T18:15:02;99563.94;;;5.32;67.58
58467;BME280;44255;49.244;7.726;2023-02-03T18:17:27;99564.25;;;5.21;67.51
58467;BME280;44255;49.244;7.726;2023-02-03T18:19:53;99565.50;;;5.07;69.39
58467;BME280;44255;49.244;7.726;2023-02-03T18:22:19;99568.63;;;5.57;66.42
58467;BME280;44255;49.244;7.726;2023-02-03T18:24:46;99574.13;;;5.50;66.99
58467;BME280;44255;49.244;7.726;2023-02-03T18:27:15;99569.00;;;5.74;66.37
58467;BME280;44255;49.244;7.726;2023-02-03T18:29:43;99564.69;;;5.05;68.36
58467;BME280;44255;49.244;7.726;2023-02-03T18:32:08;99557.53;;;5.69;66.74
58467;BME280;44255;49.244;7.726;2023-02-03T18:34:34;99551.75;;;5.55;66.83
58467;BME280;44255;49.244;7.726;2023-02-03T18:36:59;99558.41;;;5.70;66.56
58467;BME280;44255;49.244;7.726;2023-02-03T18:39:24;99553.84;;;5.12;68.99
58467;BME280;44255;49.244;7.726;2023-02-03T18:41:49;99552.88;;;5.76;66.35
58467;BME280;44255;49.244;7.726;2023-02-03T18:44:15;99568.16;;;5.72;65.38
58467;BME280;44255;49.244;7.726;2023-02-03T18:46:40;99569.38;;;5.29;67.74
58467;BME280;44255;49.244;7.726;2023-02-03T18:49:06;99580.50;;;5.76;65.56
58467;BME280;44255;49.244;7.726;2023-02-03T18:51:33;99574.47;;;5.38;67.03
58467;BME280;44255;49.244;7.726;2023-02-03T18:53:58;99569.88;;;5.45;67.94
58467;BME280;44255;49.244;7.726;2023-02-03T18:56:26;99573.56;;;5.69;66.63
58467;BME280;44255;49.244;7.726;2023-02-03T18:58:51;99581.56;;;5.39;66.62
58467;BME280;44255;49.244;7.726;2023-02-03T19:01:27;99570.38;;;5.58;66.86
58467;BME280;44255;49.244;7.726;2023-02-03T19:03:54;99572.25;;;5.54;67.02
58467;BME280;44255;49.244;7.726;2023-02-03T19:06:21;99574.72;;;5.60;66.91
58467;BME280;44255;49.244;7.726;2023-02-03T19:08:46;99583.66;;;4.96;68.07
58467;BME280;44255;49.244;7.726;2023-02-03T19:11:12;99575.16;;;5.13;68.95
58467;BME280;44255;49.244;7.726;2023-02-03T19:13:38;99585.66;;;4.53;70.86
58467;BME280;44255;49.244;7.726;2023-02-03T19:16:04;99584.69;;;5.55;67.57
58467;BME280;44255;49.244;7.726;2023-02-03T19:18:29;99579.31;;;5.57;67.18
58467;BME280;44255;49.244;7.726;2023-02-03T19:20:56;99584.47;;;5.63;66.89
58467;BME280;44255;49.244;7.726;2023-02-03T19:23:21;99590.28;;;5.14;68.36
58467;BME280;44255;49.244;7.726;2023-02-03T19:25:50;99584.28;;;5.37;68.15
58467;BME280;44255;49.244;7.726;2023-02-03T19:28:16;99590.84;;;5.59;66.89
58467;BME280;44255;49.244;7.726;2023-02-03T19:30:41;99604.78;;;5.70;66.19
58467;BME280;44255;49.244;7.726;2023-02-03T19:33:06;99612.84;;;5.04;69.39
58467;BME280;44255;49.244;7.726;2023-02-03T19:35:32;99606.28;;;5.49;67.96
58467;BME280;44255;49.244;7.726;2023-02-03T19:37:58;99613.44;;;5.78;66.79
58467;BME280;44255;49.244;7.726;2023-02-03T19:40:24;99608.66;;;5.90;66.55
58467;BME280;44255;49.244;7.726;2023-02-03T19:42:49;99607.88;;;5.85;66.40
58467;BME280;44255;49.244;7.726;2023-02-03T19:45:14;99624.59;;;6.23;64.88
58467;BME280;44255;49.244;7.726;2023-02-03T19:47:39;99616.84;;;5.54;67.18
58467;BME280;44255;49.244;7.726;2023-02-03T19:50:05;99624.88;;;5.84;65.34
58467;BME280;44255;49.244;7.726;2023-02-03T19:52:30;99637.88;;;5.66;66.20
58467;BME280;44255;49.244;7.726;2023-02-03T19:54:56;99633.78;;;5.19;68.14
58467;BME280;44255;49.244;7.726;2023-02-03T19:57:21;99629.09;;;5.61;67.69